Time;durP1;ratioP1;P1;durP2;ratioP2;P2;SDS_P1;SDS_P2;PMS_P1;PMS_P2;Temp;Humidity;BMP_temperature;BMP_pressure;BME280_temperature;BME280_humidity;BME280_pressure;Samples;Min_cycle;Max_cycle;Signal;HPM_P1;HPM_P2
2021/08/21 00:00:47;;;;;;;14.13;10.38;;;;;;;;;;5035846;28;20476;-60
2021/08/21 00:03:13;;;;;;;16.33;11.07;;;;;;;;;;5034239;28;20029;-61
2021/08/21 00:05:39;;;;;;;21.52;12.13;;;;;;;;;;5033922;28;20076;-60
2021/08/21 00:08:05;;;;;;;19.10;11.45;;;;;;;;;;5033119;28;20508;-60
2021/08/21 00:10:32;;;;;;;19.92;10.77;;;;;;;;;;5034856;28;20025;-60
2021/08/21 00:12:58;;;;;;;16.35;11.40;;;;;;;;;;5034035;28;20060;-59
2021/08/21 00:15:24;;;;;;;17.17;10.75;;;;;;;;;;5033623;28;20026;-59
2021/08/21 00:17:50;;;;;;;15.40;10.27;;;;;;;;;;5033957;28;20410;-59
2021/08/21 00:20:17;;;;;;;17.48;11.30;;;;;;;;;;5032803;28;20026;-59
2021/08/21 00:22:43;;;;;;;17.55;11.95;;;;;;;;;;5033649;28;20087;-59
2021/08/21 00:25:09;;;;;;;17.38;11.00;;;;;;;;;;5033423;28;20041;-60
2021/08/21 00:27:35;;;;;;;15.10;11.48;;;;;;;;;;5033474;28;20382;-60
2021/08/21 00:30:02;;;;;;;18.60;10.88;;;;;;;;;;5033741;28;20029;-60
2021/08/21 00:32:28;;;;;;;21.98;12.80;;;;;;;;;;5032341;28;20025;-59
2021/08/21 00:34:54;;;;;;;18.83;12.15;;;;;;;;;;5033825;28;20047;-60
2021/08/21 00:37:19;;;;;;;17.25;11.77;;;;;;;;;;5033298;28;20508;-60
2021/08/21 00:39:45;;;;;;;15.70;11.38;;;;;;;;;;5034832;28;20033;-60
2021/08/21 00:42:11;;;;;;;19.10;12.02;;;;;;;;;;5033107;28;20040;-62
2021/08/21 00:44:40;;;;;;;19.02;11.48;;;;;;;;;;5033091;28;20059;-60
2021/08/21 00:47:05;;;;;;;;;;;;;;;;;;5033032;28;20195;-59
2021/08/21 00:49:33;;;;;;;19.15;11.38;;;;;;;;;;5032583;28;20389;-59
2021/08/21 00:51:59;;;;;;;17.93;12.73;;;;;;;;;;5034451;28;20033;-59
2021/08/21 00:54:26;;;;;;;18.42;12.95;;;;;;;;;;5034591;28;20282;-59
2021/08/21 00:56:54;;;;;;;16.77;11.55;;;;;;;;;;5033300;28;20056;-59
2021/08/21 00:59:20;;;;;;;18.48;12.18;;;;;;;;;;5032312;28;20135;-60
2021/08/21 01:01:46;;;;;;;19.15;11.80;;;;;;;;;;5034206;28;20025;-59
2021/08/21 01:04:12;;;;;;;20.23;11.90;;;;;;;;;;5033033;28;20509;-59
2021/08/21 01:06:38;;;;;;;18.15;11.70;;;;;;;;;;5032440;28;20041;-59
2021/08/21 01:09:04;;;;;;;22.23;11.30;;;;;;;;;;5033177;28;20021;-59
2021/08/21 01:11:31;;;;;;;18.05;10.98;;;;;;;;;;5031891;28;20024;-59
2021/08/21 01:13:57;;;;;;;19.00;12.55;;;;;;;;;;5032558;28;20076;-59
2021/08/21 01:16:24;;;;;;;24.70;12.77;;;;;;;;;;5034252;28;20075;-59
2021/08/21 01:18:50;;;;;;;18.42;13.15;;;;;;;;;;5034143;28;20065;-59
2021/08/21 01:21:16;;;;;;;18.25;12.07;;;;;;;;;;5032708;28;20026;-59
2021/08/21 01:23:43;;;;;;;19.45;12.68;;;;;;;;;;5032082;28;20104;-59
2021/08/21 01:26:09;;;;;;;16.40;11.55;;;;;;;;;;5033594;28;20045;-60
2021/08/21 01:28:35;;;;;;;20.83;12.07;;;;;;;;;;5031983;28;20120;-60
2021/08/21 01:31:05;;;;;;;16.55;11.80;;;;;;;;;;5033718;28;20108;-60
2021/08/21 01:33:35;;;;;;;19.23;11.68;;;;;;;;;;5032452;28;20144;-59
2021/08/21 01:36:01;;;;;;;20.27;11.10;;;;;;;;;;5032043;28;20502;-60
2021/08/21 01:38:27;;;;;;;19.33;11.02;;;;;;;;;;5031808;28;20029;-60
2021/08/21 01:40:53;;;;;;;17.00;10.93;;;;;;;;;;5033868;28;20381;-60
2021/08/21 01:43:20;;;;;;;18.02;10.93;;;;;;;;;;5032385;28;20072;-60
2021/08/21 01:45:46;;;;;;;20.13;11.15;;;;;;;;;;5032571;28;20029;-60
2021/08/21 01:48:12;;;;;;;17.00;10.90;;;;;;;;;;5032687;28;20038;-60
2021/08/21 01:50:38;;;;;;;18.73;11.20;;;;;;;;;;5031163;28;20022;-60
2021/08/21 01:53:05;;;;;;;18.35;11.38;;;;;;;;;;5033398;28;20033;-60
2021/08/21 01:55:31;;;;;;;20.88;11.02;;;;;;;;;;5033712;28;20108;-60
2021/08/21 01:57:58;;;;;;;19.05;12.43;;;;;;;;;;5033942;28;20022;-61
2021/08/21 02:00:28;;;;;;;16.40;10.90;;;;;;;;;;5032233;28;20030;-60
2021/08/21 02:02:54;;;;;;;18.63;10.32;;;;;;;;;;5031961;28;20462;-60
2021/08/21 02:05:21;;;;;;;16.35;11.90;;;;;;;;;;5031717;28;20031;-60
2021/08/21 02:07:47;;;;;;;18.88;11.07;;;;;;;;;;5032960;28;20056;-60
2021/08/21 02:10:13;;;;;;;18.33;10.77;;;;;;;;;;5033735;28;20021;-60
2021/08/21 02:12:39;;;;;;;16.55;11.52;;;;;;;;;;5033642;28;20072;-60
2021/08/21 02:15:09;;;;;;;16.25;10.95;;;;;;;;;;5031916;28;20029;-60
2021/08/21 02:17:35;;;;;;;19.67;12.32;;;;;;;;;;5031659;28;20053;-60
2021/08/21 02:20:01;;;;;;;18.13;12.07;;;;;;;;;;5033775;28;20436;-60
2021/08/21 02:22:27;;;;;;;21.58;13.15;;;;;;;;;;5033001;28;20026;-59
2021/08/21 02:24:55;;;;;;;19.67;12.25;;;;;;;;;;5033292;28;20397;-58
2021/08/21 02:27:23;;;;;;;19.73;12.13;;;;;;;;;;5032032;28;20037;-59
2021/08/21 02:29:49;;;;;;;20.95;13.05;;;;;;;;;;5032431;28;20557;-58
2021/08/21 02:32:15;;;;;;;18.63;12.50;;;;;;;;;;5032346;28;20123;-58
2021/08/21 02:34:42;;;;;;;19.23;12.88;;;;;;;;;;5033204;28;20072;-58
2021/08/21 02:37:07;;;;;;;25.23;12.25;;;;;;;;;;5032502;28;20029;-58
2021/08/21 02:39:35;;;;;;;20.10;12.10;;;;;;;;;;5032088;28;20028;-58
2021/08/21 02:42:01;;;;;;;19.70;12.55;;;;;;;;;;5036495;28;20037;-58
2021/08/21 02:44:27;;;;;;;19.40;12.63;;;;;;;;;;5034820;28;20071;-58
2021/08/21 02:46:53;;;;;;;23.60;13.02;;;;;;;;;;5036752;28;20033;-58
2021/08/21 02:49:19;;;;;;;19.08;12.23;;;;;;;;;;5036832;28;20021;-58
2021/08/21 02:51:45;;;;;;;20.92;12.98;;;;;;;;;;5036330;28;20604;-58
2021/08/21 02:54:11;;;;;;;18.70;12.32;;;;;;;;;;5037112;28;20064;-58
2021/08/21 02:56:37;;;;;;;22.70;12.75;;;;;;;;;;5034560;28;20029;-58
2021/08/21 02:59:03;;;;;;;17.75;11.38;;;;;;;;;;5036880;28;20103;-58
2021/08/21 03:01:29;;;;;;;17.85;12.10;;;;;;;;;;5036844;28;20549;-58
2021/08/21 03:03:55;;;;;;;21.20;12.73;;;;;;;;;;5035957;28;20025;-58
2021/08/21 03:06:23;;;;;;;18.63;12.07;;;;;;;;;;5041214;28;20025;-58
2021/08/21 03:08:49;;;;;;;16.35;11.52;;;;;;;;;;5035526;28;20108;-59
2021/08/21 03:11:15;;;;;;;18.52;12.43;;;;;;;;;;5035134;28;20057;-58
2021/08/21 03:13:41;;;;;;;18.67;12.98;;;;;;;;;;5036589;28;20025;-58
2021/08/21 03:16:07;;;;;;;21.33;13.30;;;;;;;;;;5036174;28;20029;-58
2021/08/21 03:18:33;;;;;;;17.42;13.07;;;;;;;;;;5034750;28;20037;-58
2021/08/21 03:20:59;;;;;;;19.63;13.10;;;;;;;;;;5036217;28;20025;-58
2021/08/21 03:23:25;;;;;;;21.40;13.88;;;;;;;;;;5034037;28;20140;-59
2021/08/21 03:25:51;;;;;;;20.48;14.05;;;;;;;;;;5036214;28;20083;-59
2021/08/21 03:28:17;;;;;;;22.45;13.85;;;;;;;;;;5035817;28;20038;-58
2021/08/21 03:30:43;;;;;;;22.40;13.90;;;;;;;;;;5035906;28;20029;-59
2021/08/21 03:33:09;;;;;;;21.23;12.60;;;;;;;;;;5034541;28;20026;-59
2021/08/21 03:35:35;;;;;;;20.08;13.27;;;;;;;;;;5034176;28;20096;-58
2021/08/21 03:38:02;;;;;;;17.88;12.13;;;;;;;;;;5035801;28;20033;-58
2021/08/21 03:40:28;;;;;;;20.80;13.23;;;;;;;;;;5035692;28;20038;-61
2021/08/21 03:42:54;;;;;;;22.25;13.35;;;;;;;;;;5036043;28;20116;-58
2021/08/21 03:45:20;;;;;;;20.95;13.35;;;;;;;;;;5034708;28;20061;-59
2021/08/21 03:47:47;;;;;;;22.90;14.15;;;;;;;;;;5034171;28;20034;-58
2021/08/21 03:50:13;;;;;;;22.73;13.77;;;;;;;;;;5034323;28;20052;-58
2021/08/21 03:52:39;;;;;;;20.65;14.77;;;;;;;;;;5035273;28;20049;-61
2021/08/21 03:55:05;;;;;;;22.73;13.60;;;;;;;;;;5035761;28;20030;-60
2021/08/21 03:57:32;;;;;;;19.95;13.15;;;;;;;;;;5034442;28;20112;-60
2021/08/21 03:59:58;;;;;;;18.48;12.07;;;;;;;;;;5035153;28;20087;-59
2021/08/21 04:02:24;;;;;;;19.70;12.82;;;;;;;;;;5033306;28;20477;-60
2021/08/21 04:04:50;;;;;;;18.55;12.35;;;;;;;;;;5035568;28;20079;-60
2021/08/21 04:07:16;;;;;;;22.35;12.70;;;;;;;;;;5035502;28;20029;-60
2021/08/21 04:09:42;;;;;;;21.80;13.07;;;;;;;;;;5035478;28;20022;-61
2021/08/21 04:12:08;;;;;;;19.52;13.63;;;;;;;;;;5033839;28;20029;-60
2021/08/21 04:14:34;;;;;;;20.27;13.75;;;;;;;;;;5033050;28;20105;-60
2021/08/21 04:17:00;;;;;;;24.77;15.23;;;;;;;;;;5035416;28;20477;-60
2021/08/21 04:19:26;;;;;;;21.90;13.15;;;;;;;;;;5035300;28;20017;-60
2021/08/21 04:21:52;;;;;;;21.15;13.80;;;;;;;;;;5035294;28;20025;-60
2021/08/21 04:24:18;;;;;;;21.90;14.15;;;;;;;;;;5033811;28;20056;-60
2021/08/21 04:26:44;;;;;;;19.10;13.25;;;;;;;;;;5032674;28;20056;-60
2021/08/21 04:29:13;;;;;;;23.95;14.50;;;;;;;;;;5034351;28;20029;-60
2021/08/21 04:31:39;;;;;;;22.88;14.55;;;;;;;;;;5034850;28;20108;-60
2021/08/21 04:34:05;;;;;;;21.75;14.80;;;;;;;;;;5035022;28;20029;-60
2021/08/21 04:36:31;;;;;;;22.30;14.38;;;;;;;;;;5033238;28;20025;-60
2021/08/21 04:38:57;;;;;;;22.73;15.50;;;;;;;;;;5034614;28;20490;-60
2021/08/21 04:41:23;;;;;;;21.52;15.35;;;;;;;;;;5032823;28;20030;-60
2021/08/21 04:43:49;;;;;;;21.48;13.80;;;;;;;;;;5033411;28;20037;-60
2021/08/21 04:46:15;;;;;;;18.52;11.65;;;;;;;;;;5033121;28;20048;-60
2021/08/21 04:48:41;;;;;;;20.85;12.93;;;;;;;;;;5034378;28;20045;-60
2021/08/21 04:51:07;;;;;;;22.55;13.35;;;;;;;;;;5033449;28;20083;-60
2021/08/21 04:53:33;;;;;;;23.85;14.35;;;;;;;;;;5032187;28;20018;-61
2021/08/21 04:55:59;;;;;;;23.33;14.30;;;;;;;;;;5033497;28;20052;-60
2021/08/21 04:58:25;;;;;;;24.08;14.43;;;;;;;;;;5033067;28;20025;-61
2021/08/21 05:00:51;;;;;;;23.35;15.30;;;;;;;;;;5032645;28;20030;-60
2021/08/21 05:03:17;;;;;;;19.92;13.55;;;;;;;;;;5033141;28;20025;-61
2021/08/21 05:05:44;;;;;;;24.73;14.07;;;;;;;;;;5032360;28;20026;-61
2021/08/21 05:08:10;;;;;;;21.85;15.32;;;;;;;;;;5032056;28;20558;-60
2021/08/21 05:10:36;;;;;;;26.13;14.52;;;;;;;;;;5032470;28;20044;-60
2021/08/21 05:13:02;;;;;;;23.88;14.85;;;;;;;;;;5034091;28;20472;-61
2021/08/21 05:15:28;;;;;;;22.10;14.80;;;;;;;;;;5032429;28;20025;-58
2021/08/21 05:17:57;;;;;;;23.30;13.70;;;;;;;;;;5032645;28;20039;-60
2021/08/21 05:20:29;;;;;;;23.63;14.25;;;;;;;;;;5032284;28;20416;-60
2021/08/21 05:25:27;;;;;;;19.38;12.23;;;;;;;;;;5032323;28;20050;-60
2021/08/21 05:27:53;;;;;;;20.25;13.20;;;;;;;;;;5032280;28;20120;-61
2021/08/21 05:30:19;;;;;;;19.92;12.48;;;;;;;;;;5032694;28;20567;-61
2021/08/21 05:32:44;;;;;;;17.23;11.73;;;;;;;;;;5031631;28;20033;-61
2021/08/21 05:35:10;;;;;;;21.13;11.35;;;;;;;;;;5033602;28;20028;-58
2021/08/21 05:37:37;;;;;;;17.60;11.23;;;;;;;;;;5033765;28;20495;-60
2021/08/21 05:40:03;;;;;;;18.45;11.70;;;;;;;;;;5032361;28;20022;-61
2021/08/21 05:42:29;;;;;;;16.83;12.75;;;;;;;;;;5032373;28;20029;-60
2021/08/21 05:44:55;;;;;;;19.05;12.63;;;;;;;;;;5032071;28;20037;-61
2021/08/21 05:47:21;;;;;;;19.48;12.18;;;;;;;;;;5031272;28;20033;-61
2021/08/21 05:49:47;;;;;;;18.20;11.60;;;;;;;;;;5032240;28;20112;-61
2021/08/21 05:52:13;;;;;;;15.77;11.55;;;;;;;;;;5033651;28;20033;-60
2021/08/21 05:54:39;;;;;;;18.52;11.85;;;;;;;;;;5033742;28;20060;-60
2021/08/21 05:57:05;;;;;;;21.35;11.43;;;;;;;;;;5032563;28;20029;-60
2021/08/21 05:59:31;;;;;;;20.88;11.65;;;;;;;;;;5031506;28;20021;-61
2021/08/21 06:01:57;;;;;;;17.27;11.32;;;;;;;;;;5033836;28;20017;-60
2021/08/21 06:04:23;;;;;;;18.27;11.45;;;;;;;;;;5033636;28;20026;-60
2021/08/21 06:06:49;;;;;;;18.33;10.60;;;;;;;;;;5033473;28;20507;-60
2021/08/21 06:09:19;;;;;;;14.57;9.57;;;;;;;;;;5033396;28;20099;-60
2021/08/21 06:11:45;;;;;;;13.57;8.98;;;;;;;;;;5031222;28;20079;-60
2021/08/21 06:14:11;;;;;;;13.15;8.20;;;;;;;;;;5032993;28;20037;-60
2021/08/21 06:16:37;;;;;;;12.25;8.05;;;;;;;;;;5036113;28;20036;-60
2021/08/21 06:19:03;;;;;;;12.68;8.63;;;;;;;;;;5037068;28;20071;-58
2021/08/21 06:21:29;;;;;;;14.93;7.85;;;;;;;;;;5036287;28;20507;-59
2021/08/21 06:23:55;;;;;;;14.60;7.43;;;;;;;;;;5021293;28;20052;-59
2021/08/21 06:26:21;;;;;;;15.13;7.90;;;;;;;;;;5034892;28;20048;-59
2021/08/21 06:28:47;;;;;;;13.77;7.95;;;;;;;;;;5037173;28;20038;-58
2021/08/21 06:31:14;;;;;;;11.85;7.43;;;;;;;;;;5036806;28;20026;-59
2021/08/21 06:33:40;;;;;;;12.40;7.82;;;;;;;;;;5035687;28;20068;-59
2021/08/21 06:36:06;;;;;;;11.05;7.25;;;;;;;;;;5035721;28;20489;-59
2021/08/21 06:38:32;;;;;;;13.13;7.15;;;;;;;;;;5034598;28;20029;-59
2021/08/21 06:40:58;;;;;;;11.53;6.80;;;;;;;;;;5036726;28;20033;-59
2021/08/21 06:43:25;;;;;;;11.80;7.50;;;;;;;;;;5034504;28;20087;-58
2021/08/21 06:45:51;;;;;;;12.23;7.55;;;;;;;;;;5033065;28;20040;-58
2021/08/21 06:48:16;;;;;;;11.15;6.78;;;;;;;;;;5028551;28;20045;-58
2021/08/21 06:50:44;;;;;;;11.68;7.10;;;;;;;;;;5032954;28;20021;-58
2021/08/21 06:53:10;;;;;;;11.15;7.28;;;;;;;;;;5035058;28;20025;-58
2021/08/21 06:55:36;;;;;;;10.90;7.55;;;;;;;;;;5035773;28;20026;-59
2021/08/21 06:58:02;;;;;;;15.63;7.47;;;;;;;;;;5037742;28;20021;-58
2021/08/21 07:00:28;;;;;;;13.27;7.95;;;;;;;;;;5035092;28;20491;-58
2021/08/21 07:02:54;;;;;;;13.52;7.63;;;;;;;;;;5034071;28;20033;-58
2021/08/21 07:05:20;;;;;;;14.40;8.20;;;;;;;;;;5034343;28;20597;-58
2021/08/21 07:07:46;;;;;;;12.30;7.85;;;;;;;;;;5028896;28;20484;-57
2021/08/21 07:10:12;;;;;;;16.13;7.90;;;;;;;;;;5034755;28;20025;-60
2021/08/21 07:12:38;;;;;;;13.85;7.65;;;;;;;;;;5033743;28;20539;-60
2021/08/21 07:15:05;;;;;;;12.73;7.15;;;;;;;;;;5042858;28;20045;-60
2021/08/21 07:17:31;;;;;;;12.50;7.70;;;;;;;;;;5032143;28;20481;-59
2021/08/21 07:19:57;;;;;;;12.10;7.50;;;;;;;;;;5027420;28;20660;-59
2021/08/21 07:22:23;;;;;;;11.68;6.97;;;;;;;;;;5024027;28;20481;-59
2021/08/21 07:24:49;;;;;;;10.45;6.97;;;;;;;;;;5034354;28;20072;-59
2021/08/21 07:27:15;;;;;;;11.52;6.97;;;;;;;;;;5031141;28;20481;-59
2021/08/21 07:29:41;;;;;;;10.00;6.80;;;;;;;;;;5034412;28;20112;-59
2021/08/21 07:32:08;;;;;;;9.57;6.75;;;;;;;;;;5033935;28;20372;-59
2021/08/21 07:34:34;;;;;;;11.50;7.28;;;;;;;;;;5035837;28;20113;-59
2021/08/21 07:36:59;;;;;;;11.10;6.90;;;;;;;;;;5033617;28;20443;-59
2021/08/21 07:39:25;;;;;;;11.13;6.70;;;;;;;;;;5034582;28;20035;-59
2021/08/21 07:41:51;;;;;;;10.98;6.57;;;;;;;;;;5034061;28;20066;-60
2021/08/21 07:44:17;;;;;;;9.60;6.65;;;;;;;;;;5041649;28;20018;-59
2021/08/21 07:46:43;;;;;;;12.15;6.63;;;;;;;;;;5035054;28;20496;-59
2021/08/21 07:49:09;;;;;;;11.18;6.40;;;;;;;;;;5035467;28;20033;-60
2021/08/21 07:51:37;;;;;;;14.20;7.05;;;;;;;;;;5034096;28;20025;-59
2021/08/21 07:54:03;;;;;;;12.98;7.10;;;;;;;;;;5033775;28;20041;-59
2021/08/21 07:56:29;;;;;;;15.68;7.63;;;;;;;;;;5030018;28;20021;-59
2021/08/21 07:58:55;;;;;;;10.35;6.75;;;;;;;;;;5032868;28;20032;-60
2021/08/21 08:01:21;;;;;;;15.02;8.77;;;;;;;;;;5034416;28;20044;-59
2021/08/21 08:03:47;;;;;;;12.07;6.20;;;;;;;;;;5034491;28;20358;-59
2021/08/21 08:06:12;;;;;;;11.10;6.10;;;;;;;;;;5021321;28;20104;-59
2021/08/21 08:08:38;;;;;;;12.52;6.65;;;;;;;;;;5034492;28;20112;-60
2021/08/21 08:11:04;;;;;;;10.32;5.90;;;;;;;;;;5033833;28;20025;-60
2021/08/21 08:13:30;;;;;;;9.35;5.85;;;;;;;;;;5034656;28;20484;-59
2021/08/21 08:15:56;;;;;;;9.93;6.40;;;;;;;;;;5041637;28;20026;-61
2021/08/21 08:18:22;;;;;;;10.05;5.93;;;;;;;;;;5033065;28;20022;-61
2021/08/21 08:20:48;;;;;;;37.92;19.85;;;;;;;;;;5033936;28;20040;-61
2021/08/21 08:23:14;;;;;;;31.23;7.68;;;;;;;;;;5032514;28;20108;-60
2021/08/21 08:25:40;;;;;;;10.50;6.90;;;;;;;;;;5038154;28;20502;-60
2021/08/21 08:28:06;;;;;;;14.55;7.15;;;;;;;;;;5040919;28;20034;-66
2021/08/21 08:30:32;;;;;;;9.90;6.55;;;;;;;;;;5034500;28;20026;-63
2021/08/21 08:32:58;;;;;;;9.63;7.10;;;;;;;;;;5032941;28;20055;-64
2021/08/21 08:35:24;;;;;;;15.25;7.55;;;;;;;;;;5047014;28;20058;-64
2021/08/21 08:37:50;;;;;;;11.27;6.00;;;;;;;;;;5033641;28;20037;-61
2021/08/21 08:40:16;;;;;;;173.63;35.67;;;;;;;;;;5033273;28;20030;-64
2021/08/21 08:42:43;;;;;;;10.63;6.70;;;;;;;;;;5033245;28;20477;-61
2021/08/21 08:45:11;;;;;;;12.40;6.50;;;;;;;;;;5046487;28;20508;-61
2021/08/21 08:47:37;;;;;;;36.17;6.47;;;;;;;;;;5032542;28;20034;-61
2021/08/21 08:50:04;;;;;;;12.75;6.30;;;;;;;;;;5033102;28;20048;-61
2021/08/21 08:52:30;;;;;;;8.30;5.75;;;;;;;;;;5034274;28;20459;-60
2021/08/21 08:54:56;;;;;;;9.43;5.80;;;;;;;;;;5034588;28;20469;-57
2021/08/21 08:57:38;;;;;;;13.38;6.93;;;;;;;;;;5033011;28;20029;-58
2021/08/21 09:00:08;;;;;;;9.98;6.75;;;;;;;;;;5027659;28;20383;-59
2021/08/21 09:02:35;;;;;;;8.25;5.70;;;;;;;;;;5029387;28;20053;-61
2021/08/21 09:05:02;;;;;;;10.35;6.00;;;;;;;;;;5033672;28;20435;-69
2021/08/21 09:07:40;;;;;;;12.77;6.05;;;;;;;;;;5035538;28;20396;-68
2021/08/21 09:10:14;;;;;;;9.00;6.10;;;;;;;;;;5035018;28;20543;-69
2021/08/21 09:12:40;;;;;;;11.10;5.95;;;;;;;;;;5042887;28;20587;-66
2021/08/21 09:15:27;;;;;;;10.05;5.95;;;;;;;;;;5032933;28;20026;-67
2021/08/21 09:18:07;;;;;;;8.52;5.72;;;;;;;;;;5032040;28;20021;-67
2021/08/21 09:20:50;;;;;;;9.48;6.38;;;;;;;;;;5027836;28;20021;-67
2021/08/21 09:23:26;;;;;;;12.20;6.22;;;;;;;;;;5032092;28;20423;-65
2021/08/21 09:26:04;;;;;;;11.15;5.60;;;;;;;;;;5032626;28;20531;-65
2021/08/21 09:28:30;;;;;;;8.80;6.45;;;;;;;;;;5032431;28;20065;-66
2021/08/21 09:31:01;;;;;;;8.70;6.40;;;;;;;;;;5032603;28;20073;-66
2021/08/21 09:33:27;;;;;;;10.85;6.38;;;;;;;;;;5033869;28;20107;-65
2021/08/21 09:35:53;;;;;;;15.45;6.32;;;;;;;;;;5032397;28;20473;-66
2021/08/21 09:38:22;;;;;;;10.02;6.53;;;;;;;;;;5031590;28;20022;-65
2021/08/21 09:40:48;;;;;;;9.80;6.07;;;;;;;;;;5031483;28;20029;-64
2021/08/21 09:43:21;;;;;;;10.88;6.78;;;;;;;;;;5033434;28;20037;-66
2021/08/21 09:45:48;;;;;;;13.40;6.75;;;;;;;;;;5033818;28;20030;-66
2021/08/21 09:48:14;;;;;;;10.50;6.18;;;;;;;;;;5032419;28;20029;-66
2021/08/21 09:50:41;;;;;;;11.52;6.13;;;;;;;;;;5030836;28;20022;-66
2021/08/21 09:53:08;;;;;;;13.00;6.72;;;;;;;;;;5031274;28;20029;-66
2021/08/21 09:55:34;;;;;;;11.73;6.90;;;;;;;;;;5033814;28;20444;-66
2021/08/21 09:58:00;;;;;;;12.23;6.30;;;;;;;;;;5032408;28;20033;-66
2021/08/21 10:00:29;;;;;;;11.10;6.40;;;;;;;;;;5032492;28;20033;-65
2021/08/21 10:02:56;;;;;;;10.52;6.72;;;;;;;;;;5032365;28;20041;-66
2021/08/21 10:05:23;;;;;;;10.77;6.13;;;;;;;;;;5045244;28;20500;-66
2021/08/21 10:07:54;;;;;;;10.73;6.35;;;;;;;;;;5032329;28;20052;-65
2021/08/21 10:10:22;;;;;;;12.80;6.43;;;;;;;;;;5032350;28;20084;-67
2021/08/21 10:12:53;;;;;;;11.82;6.32;;;;;;;;;;5032148;28;20078;-67
2021/08/21 10:15:20;;;;;;;12.05;6.85;;;;;;;;;;5031808;28;20034;-65
2021/08/21 10:17:47;;;;;;;10.00;6.38;;;;;;;;;;5031168;28;20025;-65
2021/08/21 10:20:13;;;;;;;12.98;6.50;;;;;;;;;;5031336;28;20510;-65
2021/08/21 10:22:39;;;;;;;11.65;6.70;;;;;;;;;;5032052;28;20026;-68
2021/08/21 10:25:06;;;;;;;11.85;7.05;;;;;;;;;;5033499;28;20046;-65
2021/08/21 10:27:37;;;;;;;13.30;6.47;;;;;;;;;;5033251;28;20045;-65
2021/08/21 10:30:05;;;;;;;11.68;6.47;;;;;;;;;;5032124;28;20030;-65
2021/08/21 10:32:32;;;;;;;11.90;6.68;;;;;;;;;;5030734;28;20075;-65
2021/08/21 10:34:58;;;;;;;15.95;6.88;;;;;;;;;;5031909;28;20029;-65
2021/08/21 10:37:32;;;;;;;10.45;6.95;;;;;;;;;;5031960;28;20042;-66
2021/08/21 10:39:58;;;;;;;12.98;6.65;;;;;;;;;;5031959;28;20503;-66
2021/08/21 10:42:30;;;;;;;12.35;6.85;;;;;;;;;;5031893;28;20043;-65
2021/08/21 10:44:56;;;;;;;11.77;6.53;;;;;;;;;;5031348;28;20033;-67
2021/08/21 10:47:41;;;;;;;11.55;6.60;;;;;;;;;;5031148;28;20568;-68
2021/08/21 10:50:25;;;;;;;12.13;6.90;;;;;;;;;;5033337;28;20433;-67
2021/08/21 10:52:53;;;;;;;9.68;6.88;;;;;;;;;;5033045;28;20041;-66
2021/08/21 10:55:20;;;;;;;10.25;6.65;;;;;;;;;;5031944;28;20021;-66
2021/08/21 10:57:55;;;;;;;11.35;7.22;;;;;;;;;;5032940;28;20042;-66
2021/08/21 11:00:39;;;;;;;11.07;6.90;;;;;;;;;;5033170;28;20043;-68
2021/08/21 11:03:06;;;;;;;9.20;5.75;;;;;;;;;;5020086;28;20112;-70
2021/08/21 11:05:51;;;;;;;11.00;7.17;;;;;;;;;;5034258;28;20568;-66
2021/08/21 11:08:17;;;;;;;17.42;7.10;;;;;;;;;;5035512;28;20029;-66
2021/08/21 11:10:44;;;;;;;10.73;6.90;;;;;;;;;;5036735;28;20029;-66
2021/08/21 11:13:12;;;;;;;9.63;6.10;;;;;;;;;;5035031;28;20033;-68
2021/08/21 11:15:38;;;;;;;11.98;5.95;;;;;;;;;;5035072;28;20068;-67
2021/08/21 11:18:05;;;;;;;14.95;6.50;;;;;;;;;;5035242;28;20025;-67
2021/08/21 11:20:31;;;;;;;;;;;;;;;;;;5033799;28;20422;-67
2021/08/21 11:23:24;;;;;;;10.73;6.85;;;;;;;;;;5035093;28;19992;-67
2021/08/21 11:25:49;;;;;;;14.70;6.65;;;;;;;;;;5034822;28;20076;-67
2021/08/21 11:28:20;;;;;;;11.30;6.70;;;;;;;;;;5034388;28;20119;-68
2021/08/21 11:31:06;;;;;;;11.27;6.60;;;;;;;;;;5034812;28;20499;-67
2021/08/21 11:33:34;;;;;;;9.13;6.30;;;;;;;;;;5031117;28;20150;-65
2021/08/21 11:36:01;;;;;;;13.85;6.88;;;;;;;;;;5034631;28;20025;-66
2021/08/21 11:38:31;;;;;;;15.88;6.60;;;;;;;;;;5034012;28;20434;-66
2021/08/21 11:40:58;;;;;;;10.38;6.88;;;;;;;;;;5034275;28;20075;-66
2021/08/21 11:43:24;;;;;;;;;;;;;;;;;;5036294;28;20030;-66
2021/08/21 11:45:51;;;;;;;11.20;7.13;;;;;;;;;;5033964;28;19920;-66
2021/08/21 11:48:17;;;;;;;13.80;6.57;;;;;;;;;;5035791;28;20037;-66
2021/08/21 11:50:47;;;;;;;10.55;6.68;;;;;;;;;;5033224;28;20026;-66
2021/08/21 11:53:14;;;;;;;12.27;6.95;;;;;;;;;;5034771;28;20034;-65
2021/08/21 11:55:41;;;;;;;15.07;6.68;;;;;;;;;;5033021;28;20059;-66
2021/08/21 11:58:07;;;;;;;12.50;6.32;;;;;;;;;;5026460;28;20064;-65
2021/08/21 12:00:35;;;;;;;10.75;6.57;;;;;;;;;;5029912;28;20025;-66
2021/08/21 12:03:02;;;;;;;;;;;;;;;;;;5029532;28;20025;-66
2021/08/21 12:05:36;;;;;;;12.57;6.78;;;;;;;;;;5033183;28;19905;-66
2021/08/21 12:08:22;;;;;;;8.65;5.60;;;;;;;;;;5032274;28;20037;-66
2021/08/21 12:10:56;;;;;;;19.58;7.07;;;;;;;;;;5029548;28;20623;-66
2021/08/21 12:13:27;;;;;;;10.65;6.40;;;;;;;;;;5027299;28;20493;-66
2021/08/21 12:15:54;;;;;;;12.48;6.85;;;;;;;;;;5028268;28;20524;-66
2021/08/21 12:18:21;;;;;;;11.70;6.15;;;;;;;;;;5027718;28;20125;-66
2021/08/21 12:20:47;;;;;;;9.85;6.50;;;;;;;;;;5029129;28;20062;-66
2021/08/21 12:23:14;;;;;;;12.18;6.47;;;;;;;;;;5029273;28;20025;-66
2021/08/21 12:26:13;;;;;;;11.30;7.30;;;;;;;;;;5026756;28;20132;-66
2021/08/21 12:28:43;;;;;;;10.82;6.53;;;;;;;;;;5013426;28;20136;-66
2021/08/21 12:31:13;;;;;;;12.50;6.97;;;;;;;;;;5028040;28;20022;-66
2021/08/21 12:33:39;;;;;;;10.77;6.40;;;;;;;;;;5029240;28;20029;-66
2021/08/21 12:36:13;;;;;;;12.68;6.90;;;;;;;;;;5029564;28;20030;-66
2021/08/21 12:38:39;;;;;;;10.18;6.63;;;;;;;;;;5031718;28;20029;-66
2021/08/21 12:41:17;;;;;;;11.15;6.13;;;;;;;;;;5030232;28;20029;-66
2021/08/21 12:43:43;;;;;;;10.77;7.25;;;;;;;;;;5028763;28;20036;-66
2021/08/21 12:46:21;;;;;;;13.60;6.50;;;;;;;;;;5034940;28;20033;-66
2021/08/21 12:48:48;;;;;;;11.10;6.32;;;;;;;;;;5034846;28;20477;-66
2021/08/21 12:51:31;;;;;;;13.45;7.18;;;;;;;;;;5032848;28;20022;-66
2021/08/21 12:54:04;;;;;;;11.23;6.88;;;;;;;;;;5018755;28;20033;-67
2021/08/21 12:56:30;;;;;;;11.95;6.35;;;;;;;;;;5028936;28;20064;-66
2021/08/21 12:59:09;;;;;;;11.48;5.95;;;;;;;;;;5032664;28;20037;-67
2021/08/21 13:01:35;;;;;;;12.65;6.80;;;;;;;;;;5034050;28;20444;-67
2021/08/21 13:04:04;;;;;;;12.18;6.40;;;;;;;;;;5032850;28;20064;-67
2021/08/21 13:06:30;;;;;;;15.23;6.47;;;;;;;;;;5034467;28;20052;-66
2021/08/21 13:08:56;;;;;;;10.55;6.25;;;;;;;;;;5018313;28;20069;-66
2021/08/21 13:11:22;;;;;;;9.48;6.30;;;;;;;;;;5032089;28;20104;-65
2021/08/21 13:13:48;;;;;;;11.38;6.63;;;;;;;;;;5034209;28;20444;-66
2021/08/21 13:16:14;;;;;;;11.13;6.10;;;;;;;;;;5033571;28;20017;-66
2021/08/21 13:18:40;;;;;;;13.40;6.45;;;;;;;;;;5032631;28;20420;-66
2021/08/21 13:21:06;;;;;;;10.52;6.07;;;;;;;;;;5034141;28;20031;-66
2021/08/21 13:23:33;;;;;;;13.07;6.25;;;;;;;;;;5031265;28;20389;-66
2021/08/21 13:25:59;;;;;;;13.35;6.50;;;;;;;;;;5033025;28;20467;-66
2021/08/21 13:28:28;;;;;;;12.68;6.53;;;;;;;;;;5033642;28;20072;-66
2021/08/21 13:30:54;;;;;;;9.27;6.20;;;;;;;;;;5032749;28;20143;-66
2021/08/21 13:33:20;;;;;;;10.63;5.90;;;;;;;;;;5034218;28;20436;-66
2021/08/21 13:35:46;;;;;;;13.23;5.72;;;;;;;;;;5031866;28;20045;-66
2021/08/21 13:38:12;;;;;;;12.32;6.50;;;;;;;;;;5033453;28;20040;-66
2021/08/21 13:40:38;;;;;;;9.50;5.72;;;;;;;;;;5033225;28;20104;-66
2021/08/21 13:43:04;;;;;;;9.40;6.38;;;;;;;;;;5031837;28;20021;-65
2021/08/21 13:45:31;;;;;;;12.55;6.70;;;;;;;;;;5033508;28;20055;-65
2021/08/21 13:48:00;;;;;;;10.13;5.82;;;;;;;;;;5018059;28;20511;-65
2021/08/21 13:50:26;;;;;;;9.88;6.05;;;;;;;;;;5027376;28;20014;-66
2021/08/21 13:52:52;;;;;;;10.02;6.80;;;;;;;;;;5033507;28;20037;-66
2021/08/21 13:55:18;;;;;;;10.55;5.80;;;;;;;;;;5033668;28;20029;-66
2021/08/21 13:57:44;;;;;;;11.20;6.25;;;;;;;;;;5032296;28;20026;-66
2021/08/21 14:00:10;;;;;;;10.95;5.78;;;;;;;;;;5033916;28;20055;-66
2021/08/21 14:02:39;;;;;;;12.95;6.70;;;;;;;;;;5031371;28;20056;-66
2021/08/21 14:05:05;;;;;;;16.50;6.65;;;;;;;;;;5033411;28;20028;-66
2021/08/21 14:07:31;;;;;;;13.38;6.18;;;;;;;;;;5033593;28;20041;-66
2021/08/21 14:09:57;;;;;;;12.07;6.63;;;;;;;;;;5032112;28;20056;-66
2021/08/21 14:12:23;;;;;;;37.55;11.48;;;;;;;;;;5033674;28;20615;-66
2021/08/21 14:14:52;;;;;;;12.27;6.47;;;;;;;;;;5031938;28;20140;-66
2021/08/21 14:17:18;;;;;;;10.15;6.15;;;;;;;;;;5031960;28;20097;-66
2021/08/21 14:19:44;;;;;;;11.85;6.32;;;;;;;;;;5033622;28;20492;-66
2021/08/21 14:22:10;;;;;;;9.02;6.57;;;;;;;;;;5032186;28;20029;-65
2021/08/21 14:24:36;;;;;;;12.63;6.30;;;;;;;;;;5032972;28;20529;-65
2021/08/21 14:27:02;;;;;;;10.55;6.00;;;;;;;;;;5033502;28;20385;-65
2021/08/21 14:29:28;;;;;;;11.68;6.20;;;;;;;;;;5030972;28;20358;-65